createdAt,value
2023-10-10T00:02:51.667Z,7.1
2023-10-10T00:08:46.756Z,6.5
2023-10-10T00:14:38.918Z,6.3
2023-10-10T00:20:31.224Z,6.4
2023-10-10T00:26:24.565Z,6.9
2023-10-10T00:32:15.515Z,6.6
2023-10-10T00:38:08.567Z,7.7
2023-10-10T00:44:01.514Z,6.5
2023-10-10T00:49:52.572Z,7
2023-10-10T00:55:42.438Z,6.8
2023-10-10T01:01:35.165Z,6.2
2023-10-10T01:07:27.280Z,6.6
2023-10-10T01:13:21.350Z,6.5
2023-10-10T01:19:15.460Z,6.4
2023-10-10T01:25:08.214Z,6.4
2023-10-10T01:31:00.940Z,6.4
2023-10-10T01:36:52.882Z,6.7
2023-10-10T01:42:45.254Z,6.5
2023-10-10T01:48:38.937Z,6.6
2023-10-10T01:54:32.395Z,6.4
2023-10-10T02:00:24.703Z,6.5
2023-10-10T02:06:14.717Z,6.3
2023-10-10T02:12:07.152Z,6.6
2023-10-10T02:18:01.670Z,6.6
2023-10-10T02:23:54.091Z,6.3
2023-10-10T02:29:46.377Z,6.8
2023-10-10T02:35:38.978Z,7.2
2023-10-10T02:41:32.406Z,6.9
2023-10-10T02:47:25.048Z,8.9
2023-10-10T02:53:18.817Z,8.2
2023-10-10T02:59:10.672Z,7.7
2023-10-10T03:05:04.012Z,7.3
2023-10-10T03:10:56.638Z,6.9
2023-10-10T03:16:50.798Z,6.6
2023-10-10T03:22:43.079Z,6.9
2023-10-10T03:28:37.057Z,7.8
2023-10-10T03:34:29.813Z,7.6
2023-10-10T03:40:24.484Z,7.8
2023-10-10T03:46:18.098Z,7.3
2023-10-10T03:52:10.167Z,7.1
2023-10-10T03:58:02.954Z,7.9
2023-10-10T04:03:57.151Z,7.7
2023-10-10T04:09:49.132Z,9
2023-10-10T04:15:42.076Z,9.2
2023-10-10T04:21:34.758Z,8.9
2023-10-10T04:27:27.077Z,7.9
2023-10-10T04:33:20.099Z,8.5
2023-10-10T04:39:14.489Z,9
2023-10-10T04:45:07.499Z,9.1
2023-10-10T04:51:02.138Z,9.6
2023-10-10T04:56:56.397Z,8.6
2023-10-10T05:02:48.869Z,9.3
2023-10-10T05:08:41.504Z,7.4
2023-10-10T05:14:35.349Z,7.3
2023-10-10T05:20:27.582Z,10.5
2023-10-10T05:26:20.494Z,8.8
2023-10-10T05:32:14.159Z,10
2023-10-10T05:38:06.430Z,8.2
2023-10-10T05:43:56.810Z,9.8
2023-10-10T05:49:48.694Z,9.7
2023-10-10T05:55:40.999Z,8.7
2023-10-10T06:01:35.570Z,9.3
2023-10-10T06:07:27.508Z,9.6
2023-10-10T06:13:21.420Z,8.8
2023-10-10T06:19:13.925Z,8.3
2023-10-10T06:25:09.586Z,9.3
2023-10-10T06:31:03.572Z,8.2
2023-10-10T06:36:57.697Z,8.6
2023-10-10T06:42:51.944Z,8.4
2023-10-10T06:48:44.151Z,9.1
2023-10-10T06:54:37.282Z,9.2
2023-10-10T07:00:30.258Z,8.8
2023-10-10T07:06:24.071Z,9.2
2023-10-10T07:12:16.027Z,9.4
2023-10-10T07:18:08.355Z,9.3
2023-10-10T07:24:01.105Z,9.1
2023-10-10T07:29:55.628Z,9.5
2023-10-10T07:35:48.688Z,9.1
2023-10-10T07:41:41.669Z,9.7
2023-10-10T07:47:36.684Z,9.6
2023-10-10T07:53:30.625Z,9.7
2023-10-10T07:59:28.713Z,9.4
2023-10-10T08:05:20.306Z,9.2
2023-10-10T08:11:11.309Z,8
2023-10-10T08:17:05.888Z,8.7
2023-10-10T08:22:58.347Z,9.4
2023-10-10T08:28:53.208Z,9.1
2023-10-10T08:34:45.921Z,8.9
2023-10-10T08:40:41.558Z,9.1
2023-10-10T08:46:36.043Z,9
2023-10-10T08:52:29.034Z,8.4
2023-10-10T08:58:21.606Z,8.1
2023-10-10T09:04:16.404Z,8.2
2023-10-10T09:10:10.711Z,7.6
2023-10-10T09:16:01.918Z,7.3
2023-10-10T09:21:56.812Z,7.2
2023-10-10T09:27:49.643Z,7.8
2023-10-10T09:33:42.636Z,7.2
2023-10-10T09:39:35.890Z,7.2
2023-10-10T09:45:28.067Z,6.8
2023-10-10T09:51:19.734Z,7.1
2023-10-10T09:57:11.536Z,7.3
2023-10-10T10:03:04.225Z,7.3
2023-10-10T10:08:55.634Z,7.3
2023-10-10T10:14:49.646Z,7.1
2023-10-10T10:20:43.460Z,7
2023-10-10T10:26:36.013Z,6.9
2023-10-10T10:32:30.356Z,7.4
2023-10-10T10:38:23.769Z,6.9
2023-10-10T10:44:16.263Z,6.8
2023-10-10T10:50:09.821Z,6.9
2023-10-10T10:56:02.727Z,6.2
2023-10-10T11:01:58.074Z,6.7
2023-10-10T11:07:52.738Z,7
2023-10-10T11:13:44.462Z,6.5
2023-10-10T11:19:37.081Z,6.7
2023-10-10T11:25:30.706Z,6.2
2023-10-10T11:31:27.059Z,5.8
2023-10-10T11:37:20.954Z,6.2
2023-10-10T11:43:14.778Z,6.4
2023-10-10T11:49:07.365Z,6.3
2023-10-10T11:54:59.816Z,5.6
2023-10-10T12:00:57.230Z,5.9
2023-10-10T12:06:50.387Z,6.4
2023-10-10T12:12:42.484Z,6.1
2023-10-10T12:18:36.237Z,5.7
2023-10-10T12:24:28.997Z,5.8
2023-10-10T12:30:23.552Z,5.7
2023-10-10T12:36:16.176Z,5.8
2023-10-10T12:42:10.802Z,5.8
2023-10-10T12:48:05.644Z,5.4
2023-10-10T12:54:00.629Z,5.2
2023-10-10T12:59:54.131Z,5.6
2023-10-10T13:05:48.243Z,6
2023-10-10T13:11:41.831Z,5.9
2023-10-10T13:17:37.455Z,5.7
2023-10-10T13:23:31.927Z,5.5
2023-10-10T13:29:26.182Z,5.4
2023-10-10T13:35:18.765Z,5.6
2023-10-10T13:41:13.574Z,5.8
2023-10-10T13:47:05.909Z,5.1
2023-10-10T13:52:58.632Z,5.3
2023-10-10T13:58:53.937Z,5.7
2023-10-10T14:04:48.693Z,6.4
2023-10-10T14:10:39.276Z,5.8
2023-10-10T14:16:30.455Z,5.2
2023-10-10T14:22:27.736Z,5.5
2023-10-10T14:28:22.644Z,5.4
2023-10-10T14:34:14.362Z,5.8
2023-10-10T14:40:06.742Z,5.2
2023-10-10T14:45:59.389Z,5.7
2023-10-10T14:51:52.300Z,5.5
2023-10-10T14:57:46.643Z,5.6
2023-10-10T15:03:39.158Z,5.4
2023-10-10T15:09:31.985Z,5.3
2023-10-10T15:15:26.614Z,5.6
2023-10-10T15:21:20.985Z,5.5
2023-10-10T15:27:14.603Z,5.6
2023-10-10T15:33:06.148Z,5.7
2023-10-10T15:38:57.871Z,6.3
2023-10-10T15:44:51.527Z,5.8
2023-10-10T15:50:46.786Z,6
2023-10-10T15:56:38.624Z,5.9
2023-10-10T16:02:30.475Z,6.2
2023-10-10T16:08:24.564Z,6.2
2023-10-10T16:14:17.787Z,6.6
2023-10-10T16:20:11.124Z,6.2
2023-10-10T16:26:03.765Z,6
2023-10-10T16:31:58.157Z,6.9
2023-10-10T16:37:52.779Z,6.7
2023-10-10T16:44:07.151Z,7.1
2023-10-10T16:50:00.157Z,6.8
2023-10-10T16:55:54.228Z,6.9
2023-10-10T17:01:45.573Z,6.3
2023-10-10T17:07:37.766Z,6.3
2023-10-10T17:13:29.633Z,6.6
2023-10-10T17:19:25.338Z,8.1
2023-10-10T17:25:16.962Z,8.8
2023-10-10T17:31:10.848Z,9
2023-10-10T17:37:02.342Z,7.9
2023-10-10T17:43:00.465Z,6.8
2023-10-10T17:48:50.255Z,8.5
2023-10-10T17:54:46.827Z,9.8
2023-10-10T18:00:40.814Z,8.4
2023-10-10T18:06:34.248Z,6.9
2023-10-10T18:12:25.472Z,7
2023-10-10T18:18:18.727Z,8.1
2023-10-10T18:24:11.869Z,8.5
2023-10-10T18:30:04.185Z,10.2
2023-10-10T18:35:57.635Z,9.4
2023-10-10T18:41:52.807Z,9.1
2023-10-10T18:47:45.871Z,8.7
2023-10-10T18:53:36.520Z,8.2
2023-10-10T18:59:28.859Z,8.8
2023-10-10T19:05:20.931Z,9.1
2023-10-10T19:11:13.585Z,9.8
2023-10-10T19:17:05.581Z,10.1
2023-10-10T19:22:57.717Z,9.5
2023-10-10T19:28:49.839Z,9.4
2023-10-10T19:34:42.960Z,7.9
2023-10-10T19:40:34.380Z,8.6
2023-10-10T19:46:28.392Z,6.8
2023-10-10T19:52:19.254Z,6.8
2023-10-10T19:58:11.683Z,6.6
2023-10-10T20:04:06.411Z,6.8
2023-10-10T20:09:58.768Z,6.7
2023-10-10T20:15:51.289Z,6.2
2023-10-10T20:21:43.045Z,6.5
2023-10-10T20:27:35.516Z,5.9
2023-10-10T20:33:30.866Z,5.6
2023-10-10T20:39:22.124Z,6.3
2023-10-10T20:45:14.127Z,5.6
2023-10-10T20:51:08.070Z,6.2
2023-10-10T20:56:59.831Z,5.6
2023-10-10T21:02:52.897Z,6.3
2023-10-10T21:08:51.955Z,5.9
2023-10-10T21:14:43.958Z,5.9
2023-10-10T21:20:56.782Z,5.7
2023-10-10T21:26:51.206Z,5.5
2023-10-10T21:32:45.875Z,5.5
2023-10-10T21:38:37.836Z,6
2023-10-10T21:44:34.234Z,5.8
2023-10-10T21:50:28.127Z,5.8
2023-10-10T21:56:20.214Z,6.3
2023-10-10T22:02:11.000Z,5.8
2023-10-10T22:08:04.538Z,5.4
2023-10-10T22:13:56.692Z,5.3
2023-10-10T22:19:50.791Z,5.6
2023-10-10T22:25:44.134Z,5.5
2023-10-10T22:31:40.936Z,5.2
2023-10-10T22:37:33.260Z,5.5
2023-10-10T22:43:25.997Z,5.7
2023-10-10T22:49:20.850Z,5.6
2023-10-10T22:55:13.297Z,5.6
2023-10-10T23:01:05.816Z,5.7
2023-10-10T23:06:58.542Z,6
2023-10-10T23:12:50.807Z,5.9
2023-10-10T23:18:43.632Z,5.9
2023-10-10T23:24:37.401Z,6
2023-10-10T23:30:31.485Z,5.9
2023-10-10T23:36:23.016Z,5.8
2023-10-10T23:42:15.422Z,6
2023-10-10T23:48:11.319Z,6.2
2023-10-10T23:54:03.845Z,5.8
2023-10-10T23:59:56.191Z,6.5
